ADDS METAR Data INFO
IDs: Format: Raw Decoded Include TAF

Data at: 0257 UTC 17 Jan 2018

KHKY 170253Z AUTO 00000KT 10SM OVC043 03/M04 A3027 RMK AO2 SLP248 T00281039 55002
KHKY 170153Z AUTO 00000KT 10SM BKN110 02/M04 A3026 RMK AO2 SLP248 T00221039
KHKY 170053Z 00000KT 10SM BKN100 04/M04 A3027 RMK AO2 SLP250 T00391044
KHKY 162353Z 07003KT 10SM OVC100 05/M04 A3027 RMK AO2 SLP251 T00501044 10067 20044 58006
KHKY 162253Z 00000KT 10SM OVC100 06/M04 A3028 RMK AO2 SLP253 T00561044
KHKY 162153Z 18003KT 10SM FEW100 06/M05 A3029 RMK AO2 SLP255 T00561050
KHKY 162053Z 19008KT 10SM CLR 06/M05 A3029 RMK AO2 SLP256 T00611050 56017
KHKY 161953Z 19008KT 10SM CLR 06/M05 A3031 RMK AO2 SLP261 T00611050
KHKY 161853Z 20006KT 10SM CLR 06/M06 A3030 RMK AO2 SLP261 T00561056
KHKY 161753Z VRB03KT 10SM CLR 04/M06 A3034 RMK AO2 SLP275 T00441061 10044 21067 58024
KHKY 161653Z 00000KT 10SM CLR 03/M07 A3039 RMK AO2 SLP290 T00281072
KHKY 161553Z VRB04KT 10SM CLR 01/M07 A3042 RMK AO2 SLP302 T00061072
KHKY 161453Z 00000KT 10SM CLR M02/M06 A3042 RMK AO2 SLP302 T10171061 53010
KHKY 161353Z 35003KT 10SM CLR M04/M06 A3040 RMK AO2 SLP298 T10441061
KHKY 161253Z 00000KT 10SM CLR M06/M08 A3039 RMK AO2 SLP294 T10611078
KHKY 161153Z 00000KT 10SM CLR M06/M08 A3038 RMK AO2 SLP292 T10611078 11039 21061 55001
KHKY 161053Z AUTO 00000KT 10SM CLR M06/M08 A3037 RMK AO2 SLP287 T10611083
KHKY 160953Z AUTO 00000KT 10SM CLR M05/M09 A3037 RMK AO2 SLP287 T10501089
KHKY 160853Z AUTO 00000KT 10SM CLR M05/M08 A3039 RMK AO2 SLP292 T10501083 58007
KHKY 160753Z AUTO 35003KT 10SM CLR M05/M09 A3041 RMK AO2 SLP297 T10501089
KHKY 160653Z AUTO 00000KT 10SM CLR M06/M09 A3040 RMK AO2 SLP298 T10561089
KHKY 160553Z AUTO 01003KT 10SM CLR M04/M09 A3041 RMK AO2 SLP300 T10441094 11011 21044 58004
KHKY 160453Z AUTO 00000KT 10SM CLR M03/M09 A3042 RMK AO2 SLP304 T10331089 400281094
KHKY 160353Z AUTO 00000KT 10SM CLR M03/M08 A3042 RMK AO2 SLP305 T10331083
KHKY 160253Z AUTO 00000KT 10SM CLR M03/M09 A3042 RMK AO2 SLP306 T10331089 53011
KHKY 160153Z AUTO 00000KT 10SM CLR M02/M11 A3041 RMK AO2 SLP301 T10171111
KHKY 160053Z 00000KT 10SM CLR M01/M11 A3040 RMK AO2 SLP298 T10111106
KHKY 152353Z 00000KT 10SM CLR M01/M11 A3039 RMK AO2 SLP296 T10111111 10028 21011 50003
KHKY 152253Z 00000KT 10SM CLR 00/M12 A3040 RMK AO2 SLP298 T00001117
KHKY 152153Z 00000KT 10SM CLR 02/M11 A3039 RMK AO2 SLP293 T00171111
KHKY 152053Z VRB04KT 10SM CLR 02/M12 A3038 RMK AO2 SLP290 T00171117 55017
KHKY 151953Z 25003KT 10SM CLR 02/M12 A3038 RMK AO2 SLP288 T00171117
KHKY 151853Z 00000KT 10SM CLR 01/M12 A3039 RMK AO2 SLP293 T00061122
KHKY 151753Z 23003KT 10SM CLR M01/M13 A3043 RMK AO2 PRESFR SLP308 T10111133 11011 21094 58027
KHKY 151653Z 00000KT 10SM CLR M03/M14 A3047 RMK AO2 SLP324 T10281144
KHKY 151553Z 00000KT 10SM CLR M04/M15 A3050 RMK AO2 SLP332 T10391150